sensor_id;sensor_type;location;lat;lon;timestamp;P1;durP1;ratioP1;P2;durP2;ratioP2
21777;SDS011;11050;52.222;20.916;2022-11-15T00:00:53;30.50;;;17.70;;
21777;SDS011;11050;52.222;20.916;2022-11-15T00:03:21;34.60;;;18.67;;
21777;SDS011;11050;52.222;20.916;2022-11-15T00:05:51;31.87;;;17.57;;
21777;SDS011;11050;52.222;20.916;2022-11-15T00:08:18;37.60;;;21.00;;
21777;SDS011;11050;52.222;20.916;2022-11-15T00:10:54;36.10;;;19.77;;
21777;SDS011;11050;52.222;20.916;2022-11-15T00:13:21;42.37;;;22.90;;
21777;SDS011;11050;52.222;20.916;2022-11-15T00:15:47;40.77;;;22.50;;
21777;SDS011;11050;52.222;20.916;2022-11-15T00:18:13;40.90;;;23.87;;
21777;SDS011;11050;52.222;20.916;2022-11-15T00:20:40;42.57;;;22.87;;
21777;SDS011;11050;52.222;20.916;2022-11-15T00:23:06;45.63;;;23.50;;
21777;SDS011;11050;52.222;20.916;2022-11-15T00:25:32;41.47;;;22.30;;
21777;SDS011;11050;52.222;20.916;2022-11-15T00:27:59;45.03;;;23.40;;
21777;SDS011;11050;52.222;20.916;2022-11-15T00:30:25;43.10;;;23.73;;
21777;SDS011;11050;52.222;20.916;2022-11-15T00:32:53;43.27;;;24.00;;
21777;SDS011;11050;52.222;20.916;2022-11-15T00:35:19;50.53;;;25.30;;
21777;SDS011;11050;52.222;20.916;2022-11-15T00:37:46;44.27;;;24.00;;
21777;SDS011;11050;52.222;20.916;2022-11-15T00:40:12;51.63;;;25.83;;
21777;SDS011;11050;52.222;20.916;2022-11-15T00:42:39;46.33;;;24.53;;
21777;SDS011;11050;52.222;20.916;2022-11-15T00:45:06;45.90;;;23.87;;
21777;SDS011;11050;52.222;20.916;2022-11-15T00:47:33;48.50;;;24.77;;
21777;SDS011;11050;52.222;20.916;2022-11-15T00:49:59;49.10;;;26.53;;
21777;SDS011;11050;52.222;20.916;2022-11-15T00:52:24;49.57;;;25.37;;
21777;SDS011;11050;52.222;20.916;2022-11-15T00:54:50;52.00;;;26.67;;
21777;SDS011;11050;52.222;20.916;2022-11-15T00:57:16;57.40;;;26.53;;
21777;SDS011;11050;52.222;20.916;2022-11-15T00:59:42;55.83;;;26.83;;
21777;SDS011;11050;52.222;20.916;2022-11-15T01:02:07;51.00;;;25.20;;
21777;SDS011;11050;52.222;20.916;2022-11-15T01:04:33;50.30;;;25.33;;
21777;SDS011;11050;52.222;20.916;2022-11-15T01:06:59;55.43;;;26.63;;
21777;SDS011;11050;52.222;20.916;2022-11-15T01:09:24;56.57;;;26.83;;
21777;SDS011;11050;52.222;20.916;2022-11-15T01:11:50;55.97;;;27.13;;
21777;SDS011;11050;52.222;20.916;2022-11-15T01:14:16;53.07;;;24.60;;
21777;SDS011;11050;52.222;20.916;2022-11-15T01:16:42;51.13;;;26.30;;
21777;SDS011;11050;52.222;20.916;2022-11-15T01:19:08;56.80;;;26.03;;
21777;SDS011;11050;52.222;20.916;2022-11-15T01:21:34;49.93;;;26.57;;
21777;SDS011;11050;52.222;20.916;2022-11-15T01:24:00;51.60;;;24.70;;
21777;SDS011;11050;52.222;20.916;2022-11-15T01:26:25;51.20;;;24.70;;
21777;SDS011;11050;52.222;20.916;2022-11-15T01:28:51;51.77;;;25.47;;
21777;SDS011;11050;52.222;20.916;2022-11-15T01:31:19;53.23;;;25.30;;
21777;SDS011;11050;52.222;20.916;2022-11-15T01:33:46;49.87;;;26.13;;
21777;SDS011;11050;52.222;20.916;2022-11-15T01:36:15;47.47;;;25.40;;
21777;SDS011;11050;52.222;20.916;2022-11-15T01:38:44;52.27;;;24.87;;
21777;SDS011;11050;52.222;20.916;2022-11-15T01:41:23;48.93;;;25.73;;
21777;SDS011;11050;52.222;20.916;2022-11-15T01:43:53;51.03;;;24.77;;
21777;SDS011;11050;52.222;20.916;2022-11-15T01:46:27;54.20;;;26.93;;
21777;SDS011;11050;52.222;20.916;2022-11-15T01:48:59;51.00;;;25.63;;
21777;SDS011;11050;52.222;20.916;2022-11-15T01:51:36;51.83;;;25.73;;
21777;SDS011;11050;52.222;20.916;2022-11-15T01:54:07;53.17;;;25.97;;
21777;SDS011;11050;52.222;20.916;2022-11-15T01:56:41;52.10;;;24.77;;
21777;SDS011;11050;52.222;20.916;2022-11-15T01:59:15;52.60;;;25.97;;
21777;SDS011;11050;52.222;20.916;2022-11-15T02:01:41;51.37;;;26.77;;
21777;SDS011;11050;52.222;20.916;2022-11-15T02:04:10;50.60;;;26.57;;
21777;SDS011;11050;52.222;20.916;2022-11-15T02:06:41;57.37;;;27.67;;
21777;SDS011;11050;52.222;20.916;2022-11-15T02:09:09;56.13;;;27.93;;
21777;SDS011;11050;52.222;20.916;2022-11-15T02:11:36;53.63;;;27.13;;
21777;SDS011;11050;52.222;20.916;2022-11-15T02:14:02;54.97;;;27.03;;
21777;SDS011;11050;52.222;20.916;2022-11-15T02:19:41;57.77;;;27.90;;
21777;SDS011;11050;52.222;20.916;2022-11-15T02:22:51;54.43;;;27.27;;
21777;SDS011;11050;52.222;20.916;2022-11-15T02:37:37;60.73;;;28.97;;
21777;SDS011;11050;52.222;20.916;2022-11-15T02:40:21;57.70;;;28.63;;
21777;SDS011;11050;52.222;20.916;2022-11-15T02:43:13;64.67;;;29.70;;
21777;SDS011;11050;52.222;20.916;2022-11-15T02:46:15;58.00;;;29.23;;
21777;SDS011;11050;52.222;20.916;2022-11-15T02:49:28;57.33;;;28.87;;
21777;SDS011;11050;52.222;20.916;2022-11-15T02:51:57;59.77;;;28.53;;
21777;SDS011;11050;52.222;20.916;2022-11-15T02:54:24;64.13;;;30.30;;
21777;SDS011;11050;52.222;20.916;2022-11-15T02:56:56;63.83;;;30.07;;
21777;SDS011;11050;52.222;20.916;2022-11-15T03:08:11;60.47;;;29.47;;
21777;SDS011;11050;52.222;20.916;2022-11-15T03:11:08;59.40;;;28.27;;
21777;SDS011;11050;52.222;20.916;2022-11-15T03:13:55;55.83;;;28.13;;
21777;SDS011;11050;52.222;20.916;2022-11-15T03:22:13;62.53;;;29.43;;
21777;SDS011;11050;52.222;20.916;2022-11-15T03:24:45;56.87;;;29.50;;
21777;SDS011;11050;52.222;20.916;2022-11-15T03:27:19;62.20;;;28.90;;
21777;SDS011;11050;52.222;20.916;2022-11-15T03:29:51;62.70;;;30.90;;
21777;SDS011;11050;52.222;20.916;2022-11-15T03:32:28;63.47;;;29.43;;
21777;SDS011;11050;52.222;20.916;2022-11-15T03:35:06;58.43;;;29.87;;
21777;SDS011;11050;52.222;20.916;2022-11-15T03:37:48;65.60;;;29.47;;
21777;SDS011;11050;52.222;20.916;2022-11-15T03:40:53;57.13;;;27.77;;
21777;SDS011;11050;52.222;20.916;2022-11-15T03:43:36;65.70;;;29.37;;
21777;SDS011;11050;52.222;20.916;2022-11-15T03:46:17;61.93;;;28.17;;
21777;SDS011;11050;52.222;20.916;2022-11-15T03:48:53;69.10;;;30.33;;
21777;SDS011;11050;52.222;20.916;2022-11-15T03:51:34;67.27;;;30.57;;
21777;SDS011;11050;52.222;20.916;2022-11-15T03:54:02;62.37;;;29.33;;
21777;SDS011;11050;52.222;20.916;2022-11-15T03:56:31;65.27;;;30.13;;
21777;SDS011;11050;52.222;20.916;2022-11-15T03:58:57;68.33;;;29.87;;
21777;SDS011;11050;52.222;20.916;2022-11-15T04:01:22;61.87;;;28.00;;
21777;SDS011;11050;52.222;20.916;2022-11-15T04:03:48;65.30;;;28.63;;
21777;SDS011;11050;52.222;20.916;2022-11-15T04:06:14;67.17;;;28.40;;
21777;SDS011;11050;52.222;20.916;2022-11-15T04:08:40;64.00;;;28.87;;
21777;SDS011;11050;52.222;20.916;2022-11-15T04:11:06;66.93;;;29.27;;
21777;SDS011;11050;52.222;20.916;2022-11-15T04:13:31;61.77;;;30.47;;
21777;SDS011;11050;52.222;20.916;2022-11-15T04:15:57;64.53;;;28.33;;
21777;SDS011;11050;52.222;20.916;2022-11-15T04:18:23;63.63;;;29.10;;
21777;SDS011;11050;52.222;20.916;2022-11-15T04:20:49;62.33;;;29.00;;
21777;SDS011;11050;52.222;20.916;2022-11-15T04:23:33;63.73;;;28.57;;
21777;SDS011;11050;52.222;20.916;2022-11-15T04:26:18;69.17;;;28.87;;
21777;SDS011;11050;52.222;20.916;2022-11-15T04:28:46;66.33;;;29.20;;
21777;SDS011;11050;52.222;20.916;2022-11-15T04:31:31;64.90;;;29.07;;
21777;SDS011;11050;52.222;20.916;2022-11-15T04:33:57;71.47;;;30.63;;
21777;SDS011;11050;52.222;20.916;2022-11-15T04:36:24;65.60;;;28.60;;
21777;SDS011;11050;52.222;20.916;2022-11-15T04:39:08;67.33;;;31.10;;
21777;SDS011;11050;52.222;20.916;2022-11-15T04:41:34;71.33;;;30.23;;
21777;SDS011;11050;52.222;20.916;2022-11-15T04:44:00;59.07;;;26.50;;
21777;SDS011;11050;52.222;20.916;2022-11-15T04:46:26;64.97;;;28.13;;
21777;SDS011;11050;52.222;20.916;2022-11-15T04:48:52;65.27;;;27.40;;
21777;SDS011;11050;52.222;20.916;2022-11-15T04:51:18;61.77;;;26.37;;
21777;SDS011;11050;52.222;20.916;2022-11-15T04:53:44;62.23;;;26.63;;
21777;SDS011;11050;52.222;20.916;2022-11-15T04:56:10;60.47;;;26.97;;
21777;SDS011;11050;52.222;20.916;2022-11-15T04:58:36;65.17;;;26.47;;
21777;SDS011;11050;52.222;20.916;2022-11-15T05:01:12;63.30;;;27.43;;
21777;SDS011;11050;52.222;20.916;2022-11-15T05:03:40;62.83;;;26.60;;
21777;SDS011;11050;52.222;20.916;2022-11-15T05:06:25;60.97;;;26.40;;
21777;SDS011;11050;52.222;20.916;2022-11-15T05:08:51;66.57;;;27.27;;
21777;SDS011;11050;52.222;20.916;2022-11-15T05:11:17;63.67;;;26.33;;
21777;SDS011;11050;52.222;20.916;2022-11-15T05:13:43;63.37;;;27.57;;
21777;SDS011;11050;52.222;20.916;2022-11-15T05:16:09;67.30;;;27.30;;
21777;SDS011;11050;52.222;20.916;2022-11-15T05:18:34;59.20;;;25.17;;
21777;SDS011;11050;52.222;20.916;2022-11-15T05:21:07;62.47;;;25.43;;
21777;SDS011;11050;52.222;20.916;2022-11-15T05:23:37;70.37;;;27.37;;
21777;SDS011;11050;52.222;20.916;2022-11-15T05:26:04;70.33;;;26.50;;
21777;SDS011;11050;52.222;20.916;2022-11-15T05:28:31;69.10;;;28.00;;
21777;SDS011;11050;52.222;20.916;2022-11-15T05:31:05;70.40;;;28.13;;
21777;SDS011;11050;52.222;20.916;2022-11-15T05:33:39;65.33;;;26.03;;
21777;SDS011;11050;52.222;20.916;2022-11-15T05:36:09;71.03;;;29.23;;
21777;SDS011;11050;52.222;20.916;2022-11-15T05:39:01;71.60;;;27.60;;
21777;SDS011;11050;52.222;20.916;2022-11-15T05:41:39;69.70;;;26.87;;
21777;SDS011;11050;52.222;20.916;2022-11-15T05:44:18;67.60;;;27.60;;
21777;SDS011;11050;52.222;20.916;2022-11-15T05:46:47;60.40;;;24.07;;
21777;SDS011;11050;52.222;20.916;2022-11-15T05:49:19;56.53;;;23.93;;
21777;SDS011;11050;52.222;20.916;2022-11-15T05:51:50;69.10;;;25.57;;
21777;SDS011;11050;52.222;20.916;2022-11-15T05:54:18;65.43;;;24.40;;
21777;SDS011;11050;52.222;20.916;2022-11-15T05:56:47;62.60;;;25.00;;
21777;SDS011;11050;52.222;20.916;2022-11-15T05:59:14;56.83;;;23.13;;
21777;SDS011;11050;52.222;20.916;2022-11-15T06:01:41;49.27;;;21.20;;
21777;SDS011;11050;52.222;20.916;2022-11-15T06:04:06;55.00;;;21.80;;
21777;SDS011;11050;52.222;20.916;2022-11-15T06:06:32;57.70;;;23.60;;
21777;SDS011;11050;52.222;20.916;2022-11-15T06:08:58;56.30;;;23.27;;
21777;SDS011;11050;52.222;20.916;2022-11-15T06:11:23;68.77;;;26.47;;
21777;SDS011;11050;52.222;20.916;2022-11-15T06:13:49;69.23;;;25.73;;
21777;SDS011;11050;52.222;20.916;2022-11-15T06:16:15;59.53;;;24.10;;
21777;SDS011;11050;52.222;20.916;2022-11-15T06:18:41;63.03;;;25.27;;
21777;SDS011;11050;52.222;20.916;2022-11-15T06:21:06;63.87;;;24.40;;
21777;SDS011;11050;52.222;20.916;2022-11-15T06:23:32;64.80;;;23.30;;
21777;SDS011;11050;52.222;20.916;2022-11-15T06:26:00;67.17;;;24.53;;
21777;SDS011;11050;52.222;20.916;2022-11-15T06:28:28;64.43;;;22.83;;
21777;SDS011;11050;52.222;20.916;2022-11-15T06:31:04;64.97;;;24.43;;
21777;SDS011;11050;52.222;20.916;2022-11-15T06:33:32;56.07;;;23.37;;
21777;SDS011;11050;52.222;20.916;2022-11-15T06:36:04;67.30;;;25.33;;
21777;SDS011;11050;52.222;20.916;2022-11-15T06:38:34;62.57;;;24.50;;
21777;SDS011;11050;52.222;20.916;2022-11-15T06:41:01;59.97;;;24.33;;
21777;SDS011;11050;52.222;20.916;2022-11-15T06:43:33;55.17;;;22.53;;
21777;SDS011;11050;52.222;20.916;2022-11-15T06:46:00;60.37;;;23.67;;
21777;SDS011;11050;52.222;20.916;2022-11-15T06:48:28;65.53;;;24.57;;
21777;SDS011;11050;52.222;20.916;2022-11-15T06:50:57;55.33;;;22.57;;
21777;SDS011;11050;52.222;20.916;2022-11-15T06:53:25;56.00;;;22.03;;
21777;SDS011;11050;52.222;20.916;2022-11-15T06:55:52;51.77;;;20.07;;
21777;SDS011;11050;52.222;20.916;2022-11-15T06:58:18;46.73;;;20.93;;
21777;SDS011;11050;52.222;20.916;2022-11-15T07:00:45;44.20;;;19.23;;
21777;SDS011;11050;52.222;20.916;2022-11-15T07:03:11;51.63;;;20.87;;
21777;SDS011;11050;52.222;20.916;2022-11-15T07:05:37;54.97;;;22.40;;
21777;SDS011;11050;52.222;20.916;2022-11-15T07:08:03;53.80;;;22.50;;
21777;SDS011;11050;52.222;20.916;2022-11-15T07:10:29;59.53;;;23.37;;
21777;SDS011;11050;52.222;20.916;2022-11-15T07:12:55;55.53;;;23.13;;
21777;SDS011;11050;52.222;20.916;2022-11-15T07:15:25;47.27;;;21.87;;
21777;SDS011;11050;52.222;20.916;2022-11-15T07:17:51;39.30;;;18.87;;
21777;SDS011;11050;52.222;20.916;2022-11-15T07:20:17;41.63;;;19.17;;
21777;SDS011;11050;52.222;20.916;2022-11-15T07:22:43;37.27;;;17.63;;
21777;SDS011;11050;52.222;20.916;2022-11-15T07:25:12;43.27;;;20.77;;
21777;SDS011;11050;52.222;20.916;2022-11-15T07:27:38;41.13;;;18.80;;
21777;SDS011;11050;52.222;20.916;2022-11-15T07:30:04;47.13;;;20.63;;
21777;SDS011;11050;52.222;20.916;2022-11-15T07:32:30;46.00;;;20.67;;
21777;SDS011;11050;52.222;20.916;2022-11-15T07:34:56;45.53;;;19.67;;
21777;SDS011;11050;52.222;20.916;2022-11-15T07:37:22;43.93;;;19.70;;
21777;SDS011;11050;52.222;20.916;2022-11-15T07:39:48;38.20;;;18.50;;
21777;SDS011;11050;52.222;20.916;2022-11-15T07:42:13;44.23;;;20.53;;
21777;SDS011;11050;52.222;20.916;2022-11-15T07:44:58;41.90;;;18.33;;
21777;SDS011;11050;52.222;20.916;2022-11-15T07:47:23;41.70;;;19.10;;
21777;SDS011;11050;52.222;20.916;2022-11-15T07:49:49;40.63;;;18.37;;
21777;SDS011;11050;52.222;20.916;2022-11-15T07:52:15;45.23;;;19.63;;
21777;SDS011;11050;52.222;20.916;2022-11-15T07:54:40;41.63;;;19.60;;
21777;SDS011;11050;52.222;20.916;2022-11-15T07:57:06;44.43;;;20.53;;
21777;SDS011;11050;52.222;20.916;2022-11-15T07:59:34;44.60;;;20.17;;
21777;SDS011;11050;52.222;20.916;2022-11-15T08:01:59;48.20;;;21.27;;
21777;SDS011;11050;52.222;20.916;2022-11-15T08:04:27;48.23;;;21.00;;
21777;SDS011;11050;52.222;20.916;2022-11-15T08:06:52;46.53;;;20.30;;
21777;SDS011;11050;52.222;20.916;2022-11-15T08:09:18;45.40;;;21.00;;
21777;SDS011;11050;52.222;20.916;2022-11-15T08:11:44;48.70;;;20.90;;
21777;SDS011;11050;52.222;20.916;2022-11-15T08:14:09;44.20;;;19.57;;
21777;SDS011;11050;52.222;20.916;2022-11-15T08:16:35;38.67;;;19.20;;
21777;SDS011;11050;52.222;20.916;2022-11-15T08:19:01;40.93;;;18.67;;
21777;SDS011;11050;52.222;20.916;2022-11-15T08:21:27;39.07;;;18.37;;
21777;SDS011;11050;52.222;20.916;2022-11-15T08:23:52;42.37;;;20.17;;
21777;SDS011;11050;52.222;20.916;2022-11-15T08:26:18;40.50;;;19.27;;
21777;SDS011;11050;52.222;20.916;2022-11-15T08:28:44;39.00;;;18.53;;
21777;SDS011;11050;52.222;20.916;2022-11-15T08:31:13;40.63;;;19.40;;
21777;SDS011;11050;52.222;20.916;2022-11-15T08:33:42;41.83;;;20.07;;
21777;SDS011;11050;52.222;20.916;2022-11-15T08:36:10;39.80;;;19.17;;
21777;SDS011;11050;52.222;20.916;2022-11-15T08:38:41;38.27;;;19.27;;
21777;SDS011;11050;52.222;20.916;2022-11-15T08:41:18;44.00;;;21.00;;
21777;SDS011;11050;52.222;20.916;2022-11-15T08:43:55;39.23;;;18.77;;
21777;SDS011;11050;52.222;20.916;2022-11-15T08:46:21;39.17;;;18.47;;
21777;SDS011;11050;52.222;20.916;2022-11-15T08:48:47;42.23;;;19.20;;
21777;SDS011;11050;52.222;20.916;2022-11-15T08:51:13;44.37;;;21.53;;
21777;SDS011;11050;52.222;20.916;2022-11-15T08:53:39;39.23;;;20.07;;
21777;SDS011;11050;52.222;20.916;2022-11-15T08:56:08;41.27;;;19.50;;
21777;SDS011;11050;52.222;20.916;2022-11-15T08:58:37;39.10;;;18.80;;
21777;SDS011;11050;52.222;20.916;2022-11-15T09:01:03;41.13;;;20.73;;
21777;SDS011;11050;52.222;20.916;2022-11-15T09:03:30;45.43;;;21.57;;
21777;SDS011;11050;52.222;20.916;2022-11-15T09:05:56;37.13;;;19.53;;
21777;SDS011;11050;52.222;20.916;2022-11-15T09:08:25;41.53;;;19.93;;
21777;SDS011;11050;52.222;20.916;2022-11-15T09:10:54;45.73;;;19.83;;
21777;SDS011;11050;52.222;20.916;2022-11-15T09:13:21;42.27;;;20.40;;
21777;SDS011;11050;52.222;20.916;2022-11-15T09:15:47;47.63;;;22.33;;
21777;SDS011;11050;52.222;20.916;2022-11-15T09:18:13;47.73;;;21.67;;
21777;SDS011;11050;52.222;20.916;2022-11-15T09:20:39;43.03;;;19.93;;
21777;SDS011;11050;52.222;20.916;2022-11-15T09:23:05;39.17;;;20.17;;
21777;SDS011;11050;52.222;20.916;2022-11-15T09:25:32;41.87;;;21.30;;
21777;SDS011;11050;52.222;20.916;2022-11-15T09:27:58;41.00;;;20.63;;
21777;SDS011;11050;52.222;20.916;2022-11-15T09:30:24;43.40;;;21.10;;
21777;SDS011;11050;52.222;20.916;2022-11-15T09:32:50;45.20;;;21.70;;
21777;SDS011;11050;52.222;20.916;2022-11-15T09:35:16;42.53;;;20.47;;
21777;SDS011;11050;52.222;20.916;2022-11-15T09:37:42;41.07;;;20.90;;
21777;SDS011;11050;52.222;20.916;2022-11-15T09:40:09;41.80;;;21.03;;
21777;SDS011;11050;52.222;20.916;2022-11-15T09:51:44;39.20;;;20.13;;
21777;SDS011;11050;52.222;20.916;2022-11-15T09:59:49;43.57;;;20.47;;
21777;SDS011;11050;52.222;20.916;2022-11-15T10:05:03;44.03;;;22.50;;
21777;SDS011;11050;52.222;20.916;2022-11-15T10:10:39;48.33;;;22.00;;
21777;SDS011;11050;52.222;20.916;2022-11-15T10:13:25;40.77;;;21.37;;
21777;SDS011;11050;52.222;20.916;2022-11-15T10:15:58;41.47;;;21.30;;
21777;SDS011;11050;52.222;20.916;2022-11-15T10:18:54;40.90;;;21.20;;
21777;SDS011;11050;52.222;20.916;2022-11-15T10:24:41;47.93;;;22.63;;
21777;SDS011;11050;52.222;20.916;2022-11-15T10:27:10;48.30;;;24.23;;
21777;SDS011;11050;52.222;20.916;2022-11-15T10:29:46;46.97;;;22.90;;
21777;SDS011;11050;52.222;20.916;2022-11-15T10:32:16;45.13;;;22.27;;
21777;SDS011;11050;52.222;20.916;2022-11-15T10:34:45;46.57;;;22.07;;
21777;SDS011;11050;52.222;20.916;2022-11-15T10:37:13;43.53;;;23.03;;
21777;SDS011;11050;52.222;20.916;2022-11-15T10:39:39;47.70;;;23.80;;
21777;SDS011;11050;52.222;20.916;2022-11-15T10:42:15;45.83;;;22.23;;
21777;SDS011;11050;52.222;20.916;2022-11-15T10:44:53;42.03;;;22.73;;
21777;SDS011;11050;52.222;20.916;2022-11-15T10:47:24;53.77;;;24.17;;
21777;SDS011;11050;52.222;20.916;2022-11-15T10:49:55;49.17;;;22.97;;
21777;SDS011;11050;52.222;20.916;2022-11-15T10:52:27;46.67;;;23.80;;
21777;SDS011;11050;52.222;20.916;2022-11-15T10:54:58;47.30;;;25.40;;
21777;SDS011;11050;52.222;20.916;2022-11-15T10:57:49;47.97;;;23.43;;
21777;SDS011;11050;52.222;20.916;2022-11-15T11:00:29;48.47;;;23.53;;
21777;SDS011;11050;52.222;20.916;2022-11-15T11:03:03;46.17;;;23.77;;
21777;SDS011;11050;52.222;20.916;2022-11-15T11:06:03;45.80;;;22.93;;
21777;SDS011;11050;52.222;20.916;2022-11-15T11:08:31;50.37;;;24.37;;
21777;SDS011;11050;52.222;20.916;2022-11-15T11:10:59;53.73;;;24.03;;
21777;SDS011;11050;52.222;20.916;2022-11-15T11:13:28;49.67;;;23.67;;
21777;SDS011;11050;52.222;20.916;2022-11-15T11:27:09;50.50;;;24.47;;
21777;SDS011;11050;52.222;20.916;2022-11-15T11:35:31;58.10;;;29.97;;
21777;SDS011;11050;52.222;20.916;2022-11-15T11:44:40;52.77;;;26.47;;
21777;SDS011;11050;52.222;20.916;2022-11-15T11:47:30;53.63;;;26.47;;
21777;SDS011;11050;52.222;20.916;2022-11-15T11:50:00;52.33;;;27.00;;
21777;SDS011;11050;52.222;20.916;2022-11-15T11:55:24;50.27;;;25.50;;
21777;SDS011;11050;52.222;20.916;2022-11-15T12:03:59;52.23;;;26.83;;
21777;SDS011;11050;52.222;20.916;2022-11-15T12:06:56;54.10;;;27.03;;
21777;SDS011;11050;52.222;20.916;2022-11-15T12:12:39;47.67;;;24.73;;
21777;SDS011;11050;52.222;20.916;2022-11-15T12:15:16;52.00;;;27.73;;
21777;SDS011;11050;52.222;20.916;2022-11-15T12:17:49;49.70;;;25.83;;
21777;SDS011;11050;52.222;20.916;2022-11-15T12:20:19;45.70;;;24.83;;
21777;SDS011;11050;52.222;20.916;2022-11-15T12:22:59;53.83;;;27.13;;
21777;SDS011;11050;52.222;20.916;2022-11-15T12:25:44;48.87;;;25.77;;
21777;SDS011;11050;52.222;20.916;2022-11-15T12:31:15;53.30;;;27.90;;
21777;SDS011;11050;52.222;20.916;2022-11-15T12:33:46;51.03;;;26.17;;
21777;SDS011;11050;52.222;20.916;2022-11-15T12:38:53;44.43;;;24.97;;
21777;SDS011;11050;52.222;20.916;2022-11-15T12:41:31;46.43;;;24.03;;
21777;SDS011;11050;52.222;20.916;2022-11-15T12:43:59;49.57;;;24.70;;
21777;SDS011;11050;52.222;20.916;2022-11-15T12:48:56;51.13;;;26.80;;
21777;SDS011;11050;52.222;20.916;2022-11-15T12:59:50;52.03;;;28.10;;
21777;SDS011;11050;52.222;20.916;2022-11-15T13:04:46;52.53;;;26.47;;
21777;SDS011;11050;52.222;20.916;2022-11-15T13:10:45;58.47;;;28.93;;
21777;SDS011;11050;52.222;20.916;2022-11-15T13:15:37;61.13;;;28.83;;
21777;SDS011;11050;52.222;20.916;2022-11-15T13:18:25;53.87;;;27.47;;
21777;SDS011;11050;52.222;20.916;2022-11-15T13:21:02;52.37;;;28.23;;
21777;SDS011;11050;52.222;20.916;2022-11-15T13:24:16;54.37;;;26.53;;
21777;SDS011;11050;52.222;20.916;2022-11-15T13:26:42;50.73;;;27.77;;
21777;SDS011;11050;52.222;20.916;2022-11-15T13:29:14;54.40;;;28.70;;
21777;SDS011;11050;52.222;20.916;2022-11-15T13:31:43;52.97;;;27.53;;
21777;SDS011;11050;52.222;20.916;2022-11-15T13:34:22;52.80;;;26.57;;
21777;SDS011;11050;52.222;20.916;2022-11-15T13:37:01;53.23;;;27.77;;
21777;SDS011;11050;52.222;20.916;2022-11-15T13:39:33;54.47;;;27.53;;
21777;SDS011;11050;52.222;20.916;2022-11-15T13:42:02;50.13;;;26.43;;
21777;SDS011;11050;52.222;20.916;2022-11-15T13:44:31;55.27;;;29.10;;
21777;SDS011;11050;52.222;20.916;2022-11-15T13:49:47;56.28;;;27.88;;
21777;SDS011;11050;52.222;20.916;2022-11-15T13:52:13;57.83;;;31.00;;
21777;SDS011;11050;52.222;20.916;2022-11-15T13:54:46;58.57;;;30.13;;
21777;SDS011;11050;52.222;20.916;2022-11-15T13:57:25;57.30;;;28.53;;
21777;SDS011;11050;52.222;20.916;2022-11-15T14:08:40;63.40;;;31.20;;
21777;SDS011;11050;52.222;20.916;2022-11-15T14:11:22;57.53;;;29.27;;
21777;SDS011;11050;52.222;20.916;2022-11-15T14:13:59;54.73;;;28.57;;
21777;SDS011;11050;52.222;20.916;2022-11-15T14:16:44;55.00;;;27.63;;
21777;SDS011;11050;52.222;20.916;2022-11-15T14:19:33;58.20;;;28.07;;
21777;SDS011;11050;52.222;20.916;2022-11-15T14:25:07;59.20;;;27.67;;
21777;SDS011;11050;52.222;20.916;2022-11-15T14:27:44;63.80;;;30.20;;
21777;SDS011;11050;52.222;20.916;2022-11-15T14:30:48;62.30;;;29.17;;
21777;SDS011;11050;52.222;20.916;2022-11-15T14:35:55;64.57;;;30.83;;
21777;SDS011;11050;52.222;20.916;2022-11-15T14:38:23;61.57;;;30.20;;
21777;SDS011;11050;52.222;20.916;2022-11-15T14:40:50;63.23;;;31.50;;
21777;SDS011;11050;52.222;20.916;2022-11-15T14:43:16;61.93;;;31.30;;
21777;SDS011;11050;52.222;20.916;2022-11-15T14:45:42;65.27;;;30.53;;
21777;SDS011;11050;52.222;20.916;2022-11-15T14:48:08;57.33;;;28.93;;
21777;SDS011;11050;52.222;20.916;2022-11-15T14:50:34;56.40;;;28.40;;
21777;SDS011;11050;52.222;20.916;2022-11-15T14:53:00;58.37;;;28.87;;
21777;SDS011;11050;52.222;20.916;2022-11-15T14:55:28;60.70;;;29.50;;
21777;SDS011;11050;52.222;20.916;2022-11-15T14:57:59;56.93;;;27.23;;
21777;SDS011;11050;52.222;20.916;2022-11-15T15:00:27;64.57;;;30.00;;
21777;SDS011;11050;52.222;20.916;2022-11-15T15:02:55;70.30;;;32.30;;
21777;SDS011;11050;52.222;20.916;2022-11-15T15:05:22;69.10;;;30.80;;
21777;SDS011;11050;52.222;20.916;2022-11-15T15:07:59;59.57;;;28.83;;
21777;SDS011;11050;52.222;20.916;2022-11-15T15:10:26;63.07;;;31.03;;
21777;SDS011;11050;52.222;20.916;2022-11-15T15:12:57;64.77;;;30.07;;
21777;SDS011;11050;52.222;20.916;2022-11-15T15:15:29;64.33;;;29.13;;
21777;SDS011;11050;52.222;20.916;2022-11-15T15:17:59;66.70;;;30.83;;
21777;SDS011;11050;52.222;20.916;2022-11-15T15:20:26;70.27;;;30.97;;
21777;SDS011;11050;52.222;20.916;2022-11-15T15:22:52;65.07;;;30.37;;
21777;SDS011;11050;52.222;20.916;2022-11-15T15:25:22;61.23;;;28.60;;
21777;SDS011;11050;52.222;20.916;2022-11-15T15:28:00;61.23;;;29.10;;
21777;SDS011;11050;52.222;20.916;2022-11-15T15:30:27;67.23;;;30.00;;
21777;SDS011;11050;52.222;20.916;2022-11-15T15:32:55;66.67;;;31.17;;
21777;SDS011;11050;52.222;20.916;2022-11-15T15:35:22;68.70;;;30.87;;
21777;SDS011;11050;52.222;20.916;2022-11-15T15:37:56;65.23;;;30.27;;
21777;SDS011;11050;52.222;20.916;2022-11-15T15:40:23;64.60;;;30.70;;
21777;SDS011;11050;52.222;20.916;2022-11-15T15:42:50;66.80;;;28.60;;
21777;SDS011;11050;52.222;20.916;2022-11-15T15:45:17;66.93;;;30.57;;
21777;SDS011;11050;52.222;20.916;2022-11-15T15:47:44;68.63;;;30.97;;
21777;SDS011;11050;52.222;20.916;2022-11-15T15:50:16;58.40;;;27.73;;
21777;SDS011;11050;52.222;20.916;2022-11-15T15:52:59;58.23;;;27.37;;
21777;SDS011;11050;52.222;20.916;2022-11-15T15:55:27;59.43;;;28.00;;
21777;SDS011;11050;52.222;20.916;2022-11-15T15:57:53;61.03;;;27.20;;
21777;SDS011;11050;52.222;20.916;2022-11-15T16:00:20;59.70;;;26.30;;
21777;SDS011;11050;52.222;20.916;2022-11-15T16:02:49;58.60;;;26.57;;
21777;SDS011;11050;52.222;20.916;2022-11-15T16:05:17;56.67;;;26.10;;
21777;SDS011;11050;52.222;20.916;2022-11-15T16:07:43;60.67;;;26.47;;
21777;SDS011;11050;52.222;20.916;2022-11-15T16:10:26;65.07;;;28.10;;
21777;SDS011;11050;52.222;20.916;2022-11-15T16:13:02;65.93;;;28.80;;
21777;SDS011;11050;52.222;20.916;2022-11-15T16:15:29;68.53;;;29.73;;
21777;SDS011;11050;52.222;20.916;2022-11-15T16:17:57;73.23;;;30.47;;
21777;SDS011;11050;52.222;20.916;2022-11-15T16:23:10;69.53;;;29.87;;
21777;SDS011;11050;52.222;20.916;2022-11-15T16:25:47;69.83;;;29.73;;
21777;SDS011;11050;52.222;20.916;2022-11-15T16:28:20;71.43;;;30.57;;
21777;SDS011;11050;52.222;20.916;2022-11-15T16:33:47;64.77;;;27.97;;
21777;SDS011;11050;52.222;20.916;2022-11-15T16:36:20;64.47;;;27.07;;
21777;SDS011;11050;52.222;20.916;2022-11-15T16:38:49;59.27;;;26.87;;
21777;SDS011;11050;52.222;20.916;2022-11-15T16:41:15;62.53;;;28.63;;
21777;SDS011;11050;52.222;20.916;2022-11-15T16:43:46;68.70;;;29.47;;
21777;SDS011;11050;52.222;20.916;2022-11-15T16:46:20;71.43;;;29.50;;